FKS weather

Fukushima Airport
Sukagawa, Fukusima Prefecture, Japan

Public forecast

Using degrees Celsius for public forecast. Weather courtesy of forecast.io.

Current aviation weather report (METAR) for Fukushima Airport

Retrieved 2020/05/30 10:00 UTC (11 minutes ago):

RJSF 301000Z 18009KT 9999 FEW030 21/15 Q1020

Aviation forecast (TAF) for Fukushima Airport

Retrieved 2020/05/30 06:30 UTC (4 hours ago):

TAF RJSF 300509Z 3006/3112 18006KT 9999 FEW020 SCT040 TEMPO 3007/3011 3000 SHRA BR